Latest Weather Observations for Gladstone Airport

IDQ60801

Issued at 9:35 am EST Friday 25 April 2014 (issued every 30 minutes, with the page automatically refreshed every 10 minutes)

About weather observations | Map of weather stations | Latest weather observations for QLD | Other Formats
Station Details ID: 039326 Name: GLADSTONE AIRPORT Lat: -23.87 Lon: 151.22 Height: 16.6 m
Data from the previous 72 hours. | See also: Recent months at Gladstone Airport
Date/Time
EST
Temp
°C
App
Temp
°C
Dew
Point
Rel
Hum
%
Delta-T
°C
Wind Press
QNH
hPa
Press
MSL
hPa
Rain
since 9 am
mm
Dir
 
Spd
km/h
Gust
km/h
Spd
kts
Gust
kts
25/09:30am 25.5 26.4 19.2 68 4.0 SE 13 20 7 11 1017.1 - 0.0
25/09:00am 24.7 25.5 19.1 71 3.6 SSE 13 17 7 9 1017.1 1017.0 0.0
25/08:30am 23.7 25.8 19.4 77 2.8 S 7 11 4 6 1016.9 - 0.0
25/08:00am 22.2 23.7 19.0 82 2.0 SSW 9 13 5 7 1016.8 - 0.0
25/07:30am 21.1 22.4 18.5 85 1.6 SSW 9 13 5 7 1016.6 - 0.0
25/07:00am 20.2 21.4 18.3 89 1.2 SSW 9 11 5 6 1016.3 - 0.0
25/06:30am 19.2 20.3 17.9 92 0.8 SSW 9 11 5 6 1015.7 - 0.0
25/06:00am 19.1 20.1 17.8 92 0.8 SSW 9 11 5 6 1015.4 1015.3 0.0
25/05:30am 19.0 20.0 17.7 92 0.8 SSW 9 13 5 7 1015.1 - 0.0
25/05:00am 19.4 20.5 18.1 92 0.8 SW 9 11 5 6 1014.7 - 0.0
25/04:30am 19.7 21.0 18.4 92 0.8 SSW 9 11 5 6 1014.2 - 0.0
25/04:00am 19.8 21.1 18.5 92 0.8 S 9 11 5 6 1014.1 - 0.0
25/03:30am 19.5 20.7 18.2 92 0.8 SSW 9 13 5 7 1014.3 - 0.0
25/03:00am 19.4 20.6 18.2 93 0.7 SSW 9 13 5 7 1014.5 1014.4 0.0
25/02:30am 19.8 21.1 18.5 92 0.8 SSW 9 13 5 7 1014.7 - 0.0
25/02:00am 20.1 21.8 18.4 90 1.1 SSW 7 11 4 6 1014.8 - 0.0
25/01:30am 20.2 21.5 18.5 90 1.1 SSW 9 13 5 7 1014.9 - 0.0
25/01:00am 20.3 22.0 18.6 90 1.1 SSW 7 11 4 6 1015.0 - 0.0
25/12:30am 20.7 22.4 18.6 88 1.3 SSW 7 9 4 5 1015.3 - 0.0
25/12:00am 20.9 22.9 18.8 88 1.3 SSW 6 9 3 5 1015.4 1015.3 0.0
 
Date/Time
EST
Temp
°C
App
Temp
°C
Dew
Point
Rel
Hum
%
Delta-T
°C
Wind Press
QNH
hPa
Press
MSL
hPa
Rain
since 9 am
mm
Dir
 
Spd
km/h
Gust
km/h
Spd
kts
Gust
kts
24/11:30pm 21.0 22.9 18.9 88 1.3 SSW 7 9 4 5 1015.5 - 0.0
24/11:00pm 21.3 23.2 19.0 87 1.4 SSW 7 9 4 5 1015.7 - 0.0
24/10:30pm 21.4 23.9 19.1 87 1.5 S 4 6 2 3 1015.9 - 0.0
24/10:00pm 21.7 23.8 19.4 87 1.5 S 7 9 4 5 1016.0 - 0.0
24/09:30pm 21.8 23.8 19.2 85 1.6 S 7 9 4 5 1015.9 - 0.0
24/09:00pm 22.0 23.8 18.8 82 2.0 SSW 7 9 4 5 1016.0 1015.9 0.0
24/08:30pm 22.3 24.4 18.9 81 2.1 S 6 7 3 4 1015.6 - 0.0
24/08:00pm 23.1 25.1 18.8 77 2.7 SSE 6 9 3 5 1015.4 - 0.0
24/07:30pm 23.3 25.6 19.5 79 2.4 SE 6 7 3 4 1015.1 - 0.0
24/07:00pm 23.6 25.7 19.3 77 2.7 SE 7 13 4 7 1014.9 - 0.0
24/06:30pm 23.7 25.2 19.0 75 3.0 E 9 11 5 6 1014.6 - 0.0
24/06:00pm 24.1 26.0 19.0 73 3.2 ESE 7 11 4 6 1014.2 1014.1 0.0
24/05:30pm 24.5 25.4 19.3 73 3.3 ESE 13 17 7 9 1014.0 - 0.0
24/05:00pm 25.0 25.7 19.6 72 3.5 E 15 20 8 11 1013.6 - 0.0
24/04:30pm 24.8 24.4 19.4 72 3.5 ENE 20 26 11 14 1013.3 - 0.0
24/04:00pm 25.8 25.6 19.7 69 3.9 ENE 20 26 11 14 1013.3 - 0.0
24/03:30pm 26.1 25.6 19.0 65 4.6 ENE 20 26 11 14 1013.1 - 0.0
24/03:00pm 26.2 25.4 19.3 65 4.4 ENE 22 30 12 16 1013.0 1012.9 0.0
24/02:30pm 26.7 26.5 18.6 61 5.2 ESE 17 22 9 12 1012.8 - 0.0
24/02:00pm 26.5 26.9 18.9 63 4.9 E 15 20 8 11 1013.0 - 0.0
24/01:30pm 26.2 27.7 18.8 63 4.7 ESE 9 17 5 9 1013.4 - 0.0
24/01:00pm 26.0 26.9 19.2 66 4.4 E 13 19 7 10 1013.9 - 0.0
24/12:30pm 26.3 27.6 18.4 61 5.0 SSE 9 17 5 9 1014.2 - 0.0
24/12:00pm 25.9 26.4 18.3 63 4.8 ESE 13 19 7 10 1014.6 1014.5 0.0
24/11:30am 25.6 26.7 18.8 66 4.3 SSE 11 19 6 10 1015.3 - 0.0
24/11:00am 24.8 25.4 18.5 68 4.0 S 13 20 7 11 1015.6 - 0.0
24/10:30am 24.2 24.4 18.6 71 3.5 SE 15 22 8 12 1016.2 - 0.0
24/10:00am 23.6 25.2 19.1 76 2.9 S 9 15 5 8 1016.5 - 0.0
24/09:30am 22.2 23.8 19.2 83 1.9 WSW 9 13 5 7 1016.7 - 0.0
24/09:00am 21.7 23.4 19.3 86 1.5 S 9 13 5 7 1016.0 1015.9 1.0
24/08:30am 20.6 22.5 18.9 90 1.1 S 7 11 4 6 1016.7 - 1.0
24/08:00am 20.5 22.2 18.4 88 1.3 SW 7 13 4 7 1016.9 - 1.0
24/07:30am 20.4 22.3 18.5 89 1.2 SSW 6 9 3 5 1016.4 - 1.0
24/07:00am 20.5 22.2 18.4 88 1.3 SSE 7 11 4 6 1015.0 - 1.0
24/06:30am 20.2 21.9 18.5 90 1.1 SSE 7 9 4 5 1015.0 - 1.0
24/06:00am 20.1 21.0 18.4 90 1.1 SW 11 17 6 9 1015.4 1015.3 1.0
24/05:30am 20.0 21.8 18.7 92 0.8 SSW 7 13 4 7 1015.0 - 1.0
24/05:00am 20.0 21.4 18.7 92 0.8 SSW 9 13 5 7 1014.9 - 1.0
24/04:30am 20.2 21.6 18.7 91 0.9 SW 9 13 5 7 1014.8 - 1.0
24/04:00am 20.3 21.7 18.6 90 1.1 SSW 9 13 5 7 1014.1 - 1.0
24/03:30am 20.4 22.3 18.9 91 0.9 SSW 7 11 4 6 1014.8 - 1.0
24/03:00am 20.5 22.4 19.0 91 0.9 SW 7 13 4 7 1014.6 1014.5 1.0
24/02:30am 20.6 22.6 19.1 91 0.9 SSW 7 9 4 5 1014.6 - 1.0
24/02:00am 20.7 22.7 19.2 91 0.9 SSW 7 11 4 6 1015.4 - 1.0
24/01:30am 20.8 23.3 19.1 90 1.1 S 4 7 2 4 1015.1 - 1.0
24/01:00am 20.8 22.5 19.3 91 0.9 SSW 9 13 5 7 1015.9 - 1.0
24/12:30am 20.9 22.6 19.4 91 1.0 SSW 9 13 5 7 1016.4 - 1.0
24/12:00am 21.0 22.8 19.5 91 1.0 SSW 9 13 5 7 1016.6 1016.5 1.0
 
Date/Time
EST
Temp
°C
App
Temp
°C
Dew
Point
Rel
Hum
%
Delta-T
°C
Wind Press
QNH
hPa
Press
MSL
hPa
Rain
since 9 am
mm
Dir
 
Spd
km/h
Gust
km/h
Spd
kts
Gust
kts
23/11:30pm 21.0 22.8 19.5 91 1.0 SSW 9 13 5 7 1016.9 - 1.0
23/11:00pm 21.1 22.9 19.6 91 1.0 S 9 13 5 7 1016.9 - 1.0
23/10:30pm 21.1 23.2 19.4 90 1.1 SSW 7 11 4 6 1017.1 - 1.0
23/10:00pm 21.2 24.7 19.5 90 1.1 CALM 0 6 0 3 1017.1 - 1.0
23/09:30pm 21.5 23.8 19.8 90 1.1 S 7 11 4 6 1017.3 - 1.0
23/09:00pm 21.6 23.9 19.5 88 1.3 SSW 6 9 3 5 1017.3 1017.2 1.0
23/08:30pm 22.0 25.3 19.2 84 1.8 CALM 0 0 0 0 1017.3 - 1.0
23/08:00pm 21.8 24.1 19.5 87 1.5 SSE 6 9 3 5 1017.0 - 1.0
23/07:30pm 22.0 23.5 19.7 87 1.5 ESE 11 15 6 8 1016.6 - 1.0
23/07:00pm 21.9 23.9 20.0 89 1.2 ESE 9 13 5 7 1016.5 - 1.0
23/06:30pm 21.9 23.9 20.0 89 1.2 SE 9 13 5 7 1016.2 - 1.0
23/06:00pm 22.2 24.3 20.1 88 1.3 ESE 9 13 5 7 1016.1 1016.0 1.0
23/05:30pm 22.2 25.1 19.9 87 1.5 SE 4 6 2 3 1016.1 - 0.6
23/05:00pm 22.8 24.1 19.4 81 2.2 E 11 17 6 9 1015.5 - 0.2
23/04:30pm 23.0 23.5 19.2 79 2.4 ENE 15 20 8 11 1015.4 - 0.0
23/04:00pm 23.3 24.3 19.5 79 2.4 NE 13 17 7 9 1015.3 - 0.0
23/03:30pm 23.3 24.0 19.7 80 2.3 NNE 15 22 8 12 1015.3 - 0.0
23/03:00pm 23.5 23.0 19.2 77 2.7 NE 20 28 11 15 1015.0 1014.9 0.0
23/02:30pm 24.9 24.9 19.0 69 3.8 ESE 17 22 9 12 1015.1 - 0.0
23/02:00pm 25.1 25.0 18.8 68 4.0 ESE 17 20 9 11 1015.2 - 0.0
23/01:30pm 25.5 26.3 19.9 71 3.6 ENE 15 20 8 11 1015.3 - 0.0
23/01:00pm 24.8 25.3 20.1 75 3.0 E 17 20 9 11 1015.8 - 0.0
23/12:43pm 24.2 25.7 19.7 76 2.9 E 11 15 6 8 1016.0 - 0.0
23/12:30pm 23.6 24.8 19.9 80 2.4 ESE 13 19 7 10 1016.4 - 0.0
23/12:22pm 23.5 23.9 19.8 80 2.4 E 17 20 9 11 1016.6 - 0.0
23/12:00pm 24.8 24.8 19.0 70 3.7 ESE 17 22 9 12 1016.9 1016.8 0.0
23/11:30am 24.8 24.1 18.3 67 4.1 ESE 19 24 10 13 1017.0 - 0.0
23/11:00am 24.8 23.7 18.7 69 3.9 ESE 22 28 12 15 1017.4 - 0.0
23/10:30am 25.7 25.3 18.9 66 4.3 ESE 19 24 10 13 1017.5 - 0.0
23/10:00am 25.4 26.1 18.8 67 4.2 SE 13 22 7 12 1017.8 - 0.0
23/09:30am 24.5 24.9 18.2 68 4.0 SE 13 19 7 10 1018.0 - 0.0
23/09:00am 23.5 26.1 18.4 73 3.2 SE 2 7 1 4 1018.0 1017.9 0.0
23/08:30am 22.5 23.8 18.5 78 2.5 SSW 9 13 5 7 1017.7 - 0.0
23/08:00am 21.5 22.6 17.9 80 2.2 SSW 9 11 5 6 1017.9 - 0.0
23/07:30am 21.2 22.2 17.8 81 2.1 S 9 13 5 7 1017.5 - 0.0
23/07:00am 20.9 21.9 17.7 82 2.0 SSW 9 13 5 7 1017.4 - 0.0
23/06:30am 20.5 21.1 17.7 84 1.7 SSW 11 15 6 8 1017.3 - 0.0
23/06:00am 20.2 21.0 17.4 84 1.7 SSW 9 13 5 7 1017.1 1017.0 0.0
23/05:30am 20.4 21.5 17.2 82 2.0 S 7 9 4 5 1016.8 - 0.0
23/05:00am 20.5 21.6 17.1 81 2.1 SSW 7 11 4 6 1017.0 - 0.0
23/04:30am 20.5 21.6 17.1 81 2.1 SSW 7 9 4 5 1017.0 - 0.0
23/04:00am 20.7 22.0 17.1 80 2.2 S 6 9 3 5 1016.9 - 0.0
23/03:30am 20.8 21.9 17.0 79 2.3 SSW 7 11 4 6 1016.8 - 0.0
23/03:00am 20.9 21.9 16.9 78 2.4 SSW 7 9 4 5 1017.1 1017.0 0.0
23/02:30am 21.5 22.6 17.1 76 2.7 SSE 7 11 4 6 1016.8 - 0.0
23/02:00am 21.2 22.5 17.2 78 2.5 S 6 7 3 4 1017.2 - 0.0
23/01:30am 21.2 22.3 17.2 78 2.5 S 7 9 4 5 1017.6 - 0.0
23/01:00am 21.2 22.3 17.0 77 2.6 SSW 7 11 4 6 1017.9 - 0.0
23/12:30am 21.9 23.2 17.1 74 2.9 SSE 6 9 3 5 1018.2 - 0.0
23/12:00am 22.1 23.2 17.0 73 3.1 SSE 7 9 4 5 1018.1 1018.0 0.0
 
Date/Time
EST
Temp
°C
App
Temp
°C
Dew
Point
Rel
Hum
%
Delta-T
°C
Wind Press
QNH
hPa
Press
MSL
hPa
Rain
since 9 am
mm
Dir
 
Spd
km/h
Gust
km/h
Spd
kts
Gust
kts
22/11:30pm 22.3 23.4 17.2 73 3.1 SSE 7 11 4 6 1018.2 - 0.0
22/11:00pm 22.2 23.4 17.3 74 3.0 SSE 7 11 4 6 1018.5 - 0.0
22/10:30pm 22.6 23.8 17.3 72 3.3 SSE 7 9 4 5 1018.8 - 0.0
22/10:00pm 23.5 24.3 17.3 68 3.8 SE 9 13 5 7 1018.8 - 0.0
22/09:30pm 24.3 24.3 17.3 65 4.3 ESE 13 17 7 9 1018.8 - 0.0
22/09:00pm 24.3 24.7 17.3 65 4.3 E 11 17 6 9 1018.9 1018.8 0.0
22/08:30pm 24.5 24.5 17.2 63 4.5 E 13 17 7 9 1018.9 - 0.0
22/08:00pm 24.3 24.6 17.1 64 4.5 E 11 17 6 9 1018.7 - 0.0
22/07:30pm 24.2 24.1 17.0 64 4.4 E 13 19 7 10 1018.4 - 0.0
22/07:00pm 24.1 23.9 17.6 67 4.1 E 15 19 8 10 1018.0 - 0.0
22/06:30pm 24.2 23.8 17.2 65 4.3 ESE 15 20 8 11 1018.0 - 0.0
22/06:00pm 24.7 24.0 17.4 64 4.5 E 17 22 9 12 1017.9 1017.8 0.0
22/05:30pm 24.9 24.7 17.6 64 4.6 E 15 20 8 11 1017.8 - 0.0
22/05:00pm 25.3 24.8 17.7 62 4.8 E 17 20 9 11 1017.5 - 0.0
22/04:30pm 25.6 24.6 17.5 61 5.1 E 19 24 10 13 1017.2 - 0.0
22/04:00pm 26.3 25.5 17.9 60 5.3 ENE 19 24 10 13 1017.1 - 0.0
22/03:30pm 25.9 24.7 17.5 59 5.3 E 20 28 11 15 1017.2 - 0.0
22/03:00pm 26.7 25.4 17.2 56 5.9 E 20 28 11 15 1017.3 1017.2 0.0
22/02:30pm 27.1 25.0 15.1 47 7.3 E 20 28 11 15 1017.4 - 0.0
22/02:00pm 27.0 24.9 15.1 48 7.2 E 20 32 11 17 1017.5 - 0.0
22/01:30pm 27.2 24.2 12.4 40 8.6 E 20 30 11 16 1017.8 - 0.0
22/01:00pm 27.1 24.9 14.8 47 7.4 E 20 30 11 16 1018.0 - 0.0
22/12:30pm 26.4 24.0 15.4 50 6.7 E 22 30 12 16 1018.5 - 0.0
22/12:00pm 26.9 24.3 15.9 51 6.7 ESE 24 35 13 19 1018.9 1018.8 0.0
22/11:30am 27.1 24.8 16.7 53 6.5 E 24 32 13 17 1019.4 - 0.0
22/11:00am 26.6 24.6 16.5 54 6.2 ESE 22 28 12 15 1019.7 - 0.0
22/10:30am 26.3 24.3 16.5 54 6.1 ESE 22 33 12 18 1020.1 - 0.0
22/10:00am 26.0 24.0 16.5 55 5.9 E 22 30 12 16 1020.2 - 0.0

Other Formats:

Comma delimited format used in spreadsheet applications
http://www.bom.gov.au/fwo/IDQ60801/IDQ60801.94381.axf

JavaScript Object Notation format (JSON) in row-major order
http://www.bom.gov.au/fwo/IDQ60801/IDQ60801.94381.json